createdAt,value
2023-05-10T00:03:32.107Z,2.60
2023-05-10T00:08:42.356Z,2.10
2023-05-10T00:13:51.109Z,2.40
2023-05-10T00:18:59.831Z,2.80
2023-05-10T00:24:05.779Z,3.28
2023-05-10T00:29:14.634Z,3.17
2023-05-10T00:34:18.450Z,3.17
2023-05-10T00:39:29.625Z,2.97
2023-05-10T00:44:33.873Z,3.55
2023-05-10T00:49:38.416Z,3.08
2023-05-10T00:54:44.294Z,3.45
2023-05-10T00:59:48.512Z,3.40
2023-05-10T01:04:53.105Z,3.40
2023-05-10T01:10:03.665Z,3.90
2023-05-10T01:15:13.631Z,4.30
2023-05-10T01:20:18.219Z,4.35
2023-05-10T01:25:39.463Z,3.67
2023-05-10T01:31:10.177Z,3.75
2023-05-10T01:36:27.193Z,3.70
2023-05-10T01:41:46.490Z,4.38
2023-05-10T01:46:55.643Z,3.67
2023-05-10T01:52:06.214Z,3.85
2023-05-10T01:57:17.712Z,3.92
2023-05-10T02:02:23.192Z,4.40
2023-05-10T02:07:35.399Z,4.53
2023-05-10T02:12:43.230Z,4.05
2023-05-10T02:17:49.494Z,3.58
2023-05-10T02:22:57.952Z,3.97
2023-05-10T02:28:05.635Z,3.50
2023-05-10T02:33:15.639Z,3.60
2023-05-10T02:38:22.216Z,3.40
2023-05-10T02:43:26.729Z,3.53
2023-05-10T02:48:30.909Z,4.00
2023-05-10T02:53:38.499Z,3.80
2023-05-10T02:58:42.304Z,3.72
2023-05-10T03:03:46.106Z,4.00
2023-05-10T03:08:51.440Z,3.70
2023-05-10T03:14:06.609Z,3.90
2023-05-10T03:19:22.934Z,3.83
2023-05-10T03:24:30.419Z,3.75
2023-05-10T03:29:38.346Z,3.35
2023-05-10T03:34:47.326Z,3.20
2023-05-10T03:39:58.315Z,3.60
2023-05-10T03:45:02.167Z,4.18
2023-05-10T03:50:11.433Z,3.50
2023-05-10T03:55:17.198Z,3.90
2023-05-10T04:00:21.959Z,3.70
2023-05-10T04:05:34.533Z,4.22
2023-05-10T04:10:44.700Z,4.05
2023-05-10T04:15:48.452Z,4.07
2023-05-10T04:20:57.239Z,4.10
2023-05-10T04:26:07.497Z,4.35
2023-05-10T04:31:12.518Z,4.15
2023-05-10T04:36:21.438Z,4.43
2023-05-10T04:41:31.683Z,4.18
2023-05-10T04:46:40.741Z,4.05
2023-05-10T04:51:49.682Z,4.65
2023-05-10T04:56:59.758Z,4.20
2023-05-10T05:02:08.566Z,4.03
2023-05-10T05:07:12.457Z,4.00
2023-05-10T05:12:17.565Z,3.90
2023-05-10T05:17:26.454Z,4.20
2023-05-10T05:22:35.554Z,4.45
2023-05-10T05:27:45.716Z,4.05
2023-05-10T05:32:49.460Z,4.72
2023-05-10T05:37:53.232Z,3.53
2023-05-10T05:43:03.449Z,3.92
2023-05-10T05:48:12.351Z,3.47
2023-05-10T05:53:21.103Z,4.47
2023-05-10T05:58:26.942Z,3.00
2023-05-10T06:08:44.301Z,3.30
2023-05-10T06:13:54.421Z,3.20
2023-05-10T06:19:03.450Z,3.83
2023-05-10T06:24:12.695Z,3.38
2023-05-10T06:29:22.825Z,3.67
2023-05-10T06:34:31.747Z,3.50
2023-05-10T06:39:40.594Z,2.90
2023-05-10T06:44:50.636Z,3.80
2023-05-10T06:49:59.383Z,3.17
2023-05-10T06:55:09.421Z,3.47
2023-05-10T07:00:15.990Z,3.55
2023-05-10T07:05:21.135Z,2.90
2023-05-10T07:10:30.922Z,3.63
2023-05-10T07:15:40.997Z,3.30
2023-05-10T07:20:49.793Z,2.90
2023-05-10T07:25:54.398Z,3.10
2023-05-10T07:30:59.636Z,3.30
2023-05-10T07:36:08.792Z,4.10
2023-05-10T07:41:17.590Z,2.97
2023-05-10T07:46:22.743Z,3.15
2023-05-10T07:51:26.473Z,2.42
2023-05-10T07:56:32.681Z,2.38
2023-05-10T08:01:42.963Z,2.58
2023-05-10T08:06:51.718Z,2.42
2023-05-10T08:12:01.072Z,2.30
2023-05-10T08:17:11.169Z,2.65
2023-05-10T08:22:14.935Z,2.63
2023-05-10T08:27:23.662Z,2.78
2023-05-10T08:32:28.795Z,2.05
2023-05-10T08:37:37.596Z,2.80
2023-05-10T08:42:45.520Z,2.05
2023-05-10T08:47:52.013Z,2.60
2023-05-10T08:53:05.943Z,2.28
2023-05-10T08:58:10.269Z,2.47
2023-05-10T09:03:20.559Z,2.50
2023-05-10T09:08:26.867Z,2.78
2023-05-10T09:13:36.956Z,2.30
2023-05-10T09:18:47.532Z,2.03
2023-05-10T09:23:52.637Z,2.53
2023-05-10T09:29:03.673Z,2.58
2023-05-10T09:34:13.740Z,2.63
2023-05-10T09:39:22.643Z,2.08
2023-05-10T09:44:32.029Z,2.47
2023-05-10T09:49:43.914Z,2.50
2023-05-10T09:54:55.789Z,2.38
2023-05-10T10:00:06.014Z,2.20
2023-05-10T10:05:29.794Z,2.38
2023-05-10T10:10:39.753Z,2.20
2023-05-10T10:15:52.188Z,2.20
2023-05-10T10:21:04.005Z,2.08
2023-05-10T10:26:08.909Z,2.30
2023-05-10T10:31:26.066Z,2.40
2023-05-10T10:36:31.517Z,2.10
2023-05-10T10:41:37.118Z,2.05
2023-05-10T10:47:00.988Z,2.17
2023-05-10T10:52:22.513Z,1.80
2023-05-10T10:57:34.545Z,1.50
2023-05-10T11:02:49.161Z,1.70
2023-05-10T11:08:00.856Z,1.88
2023-05-10T11:13:11.111Z,1.58
2023-05-10T11:18:20.540Z,1.92
2023-05-10T11:23:34.923Z,1.73
2023-05-10T11:28:44.170Z,2.20
2023-05-10T11:33:54.369Z,1.50
2023-05-10T11:39:05.135Z,1.67
2023-05-10T11:44:13.889Z,1.77
2023-05-10T11:49:27.700Z,1.48
2023-05-10T11:54:33.312Z,1.50
2023-05-10T11:59:37.072Z,1.50
2023-05-10T12:04:45.886Z,1.60
2023-05-10T12:15:28.954Z,1.40
2023-05-10T12:20:38.208Z,1.50
2023-05-10T12:25:47.112Z,2.33
2023-05-10T12:30:55.535Z,1.13
2023-05-10T12:36:01.897Z,1.20
2023-05-10T12:41:06.878Z,1.45
2023-05-10T12:46:13.658Z,1.70
2023-05-10T12:51:20.356Z,1.50
2023-05-10T12:56:29.116Z,1.38
2023-05-10T13:01:34.418Z,1.20
2023-05-10T13:06:38.175Z,1.42
2023-05-10T13:11:48.456Z,1.30
2023-05-10T13:16:58.644Z,1.58
2023-05-10T13:27:15.768Z,1.40
2023-05-10T13:32:26.622Z,1.10
2023-05-10T13:37:38.282Z,1.40
2023-05-10T13:42:42.022Z,1.45
2023-05-10T13:47:53.225Z,1.00
2023-05-10T13:52:57.309Z,1.30
2023-05-10T13:58:06.222Z,1.30
2023-05-10T14:03:16.425Z,1.23
2023-05-10T14:08:25.230Z,1.33
2023-05-10T14:13:29.182Z,1.10
2023-05-10T14:18:39.382Z,1.42
2023-05-10T14:23:48.135Z,1.65
2023-05-10T14:28:56.896Z,2.03
2023-05-10T14:34:02.001Z,1.30
2023-05-10T14:44:19.915Z,1.40
2023-05-10T14:49:30.227Z,1.38
2023-05-10T14:54:34.477Z,1.30
2023-05-10T14:59:43.164Z,1.20
2023-05-10T15:04:48.701Z,1.60
2023-05-10T15:09:57.899Z,1.00
2023-05-10T15:15:07.788Z,1.23
2023-05-10T15:20:18.125Z,0.90
2023-05-10T15:25:27.067Z,1.25
2023-05-10T15:30:35.726Z,1.00
2023-05-10T15:35:45.815Z,1.02
2023-05-10T15:46:01.292Z,1.13
2023-05-10T15:51:06.549Z,0.88
2023-05-10T15:56:10.469Z,1.38
2023-05-10T16:01:14.273Z,1.05
2023-05-10T16:06:19.362Z,2.35
2023-05-10T16:11:28.212Z,1.10
2023-05-10T16:16:37.159Z,1.42
2023-05-10T16:21:42.412Z,1.27
2023-05-10T16:26:51.162Z,1.20
2023-05-10T16:31:59.973Z,1.17
2023-05-10T16:37:11.277Z,0.90
2023-05-10T16:42:20.157Z,1.27
2023-05-10T16:47:26.720Z,1.05
2023-05-10T16:52:37.643Z,1.17
2023-05-10T16:57:41.394Z,1.38
2023-05-10T17:02:45.221Z,1.60
2023-05-10T17:07:50.548Z,1.40
2023-05-10T17:12:59.277Z,1.30
2023-05-10T17:18:08.444Z,1.98
2023-05-10T17:23:18.638Z,1.45
2023-05-10T17:28:27.333Z,1.10
2023-05-10T17:33:36.091Z,1.70
2023-05-10T17:38:46.133Z,2.15
2023-05-10T17:43:55.136Z,1.60
2023-05-10T17:49:03.901Z,1.58
2023-05-10T17:54:14.639Z,1.40
2023-05-10T17:59:23.472Z,1.85
2023-05-10T18:04:32.926Z,1.65
2023-05-10T18:09:43.044Z,2.00
2023-05-10T18:14:46.798Z,1.88
2023-05-10T18:19:50.609Z,1.77
2023-05-10T18:24:55.679Z,2.00
2023-05-10T18:29:59.562Z,1.77
2023-05-10T18:35:09.279Z,2.03
2023-05-10T18:40:19.767Z,2.05
2023-05-10T18:45:31.720Z,1.75
2023-05-10T18:50:40.741Z,1.65
2023-05-10T18:56:01.561Z,1.48
2023-05-10T19:01:08.169Z,1.70
2023-05-10T19:06:15.628Z,1.70
2023-05-10T19:11:21.780Z,2.00
2023-05-10T19:16:28.953Z,2.08
2023-05-10T19:21:33.409Z,1.92
2023-05-10T19:26:38.704Z,2.25
2023-05-10T19:31:43.821Z,2.22
2023-05-10T19:36:47.718Z,1.75
2023-05-10T19:41:58.075Z,1.75
2023-05-10T19:47:04.642Z,2.22
2023-05-10T19:52:10.663Z,1.95
2023-05-10T19:57:23.529Z,1.90
2023-05-10T20:02:32.455Z,2.00
2023-05-10T20:07:38.071Z,2.00
2023-05-10T20:12:51.364Z,2.20
2023-05-10T20:18:00.260Z,2.30
2023-05-10T20:23:09.306Z,1.92
2023-05-10T20:28:14.587Z,2.50
2023-05-10T20:33:19.144Z,2.15
2023-05-10T20:38:22.968Z,1.80
2023-05-10T20:43:30.847Z,1.90
2023-05-10T20:48:39.953Z,2.33
2023-05-10T20:53:43.708Z,1.92
2023-05-10T20:58:54.200Z,1.70
2023-05-10T21:03:58.330Z,1.90
2023-05-10T21:09:02.248Z,2.17
2023-05-10T21:14:12.479Z,1.75
2023-05-10T21:19:17.190Z,1.75
2023-05-10T21:24:20.971Z,1.70
2023-05-10T21:29:31.174Z,1.90
2023-05-10T21:34:40.014Z,1.55
2023-05-10T21:39:43.817Z,1.88
2023-05-10T21:44:49.027Z,1.73
2023-05-10T21:49:52.899Z,1.73
2023-05-10T21:54:56.874Z,2.63
2023-05-10T22:00:11.343Z,1.73
2023-05-10T22:05:16.452Z,1.38
2023-05-10T22:10:20.450Z,1.30
2023-05-10T22:15:34.159Z,1.63
2023-05-10T22:20:46.549Z,2.22
2023-05-10T22:25:55.397Z,1.58
2023-05-10T22:31:10.491Z,1.73
2023-05-10T22:36:15.226Z,1.70
2023-05-10T22:41:24.002Z,1.80
2023-05-10T22:46:34.136Z,1.80
2023-05-10T22:51:37.957Z,2.03
2023-05-10T22:56:46.838Z,1.83
2023-05-10T23:01:57.115Z,2.05
2023-05-10T23:07:07.964Z,1.65
2023-05-10T23:12:19.591Z,2.15
2023-05-10T23:17:29.744Z,1.90
2023-05-10T23:22:33.447Z,1.85
2023-05-10T23:27:42.141Z,1.90
2023-05-10T23:32:52.226Z,2.20
2023-05-10T23:38:00.962Z,2.60
2023-05-10T23:43:04.666Z,2.20
2023-05-10T23:48:14.754Z,2.33
2023-05-10T23:53:23.499Z,2.25
2023-05-10T23:58:32.519Z,2.10
